< < Back
Terminal Aerodrome Forecast


Current Version              Previous Versions:   1  2  3  4  5  6  7  8  9  

Terminal Aerodrome Forecast

736
FTUS42 KGSP 281723
TAFHKY
TAF
KHKY 281723Z 2818/2918 12004KT P6SM FEW050 SCT250
     FM290100 00000KT P6SM FEW250
     FM291200 00000KT P6SM FEW024
     FM291600 11004KT P6SM SCT250=



Latest METAR

893
SAUS70 KWBC 282200 RRJ
MTRHKY
METAR KHKY 282153Z 00000KT 10SM BKN060 28/13 A3015 RMK AO2 SLP188
T02830133


USA.gov is the U.S. government's official web portal to all federal, state and local government web resources and services.